Airfield :
LOGIN :

Register | Disclaimer

   EN    FR    IT 

 










Legend :    VFR   Marginal VFR   IFR   Intensive IFR   Very Intensive IFR
Visi :
Ceiling :
>= 8 km
>= 3000ft
5 to 8 km
1000 to 3000 ft
1500m to 5 km
500 to 1000 ft
800 to 1500m
200 to 500 ft
< 800m
< 200 ft
Symbols :   Thunderstorms  Fog  Heavy snow  Heavy precipitations  Wind > 20 kt
SIGMETs :     Misc.  Thunderstorms  Icing  Turbulence  Mountain Waves  Volcanic Ashes






- Airport Elevation : 194 ft


EBCV - Chièvres

CURRENT METAR :
  • 080255Z AUTO 20017KT 9999 OVC016/// 09/07 Q1009 WHT

EXPIRED METARs :
  • 080225Z AUTO 21019KT 9999 OVC016/// 09/07 Q1010 WHT
  • 080155Z AUTO 20017KT 9999 BKN017/// 09/07 Q1010 WHT
  • 080125Z AUTO 20014KT 9999 OVC017/// 09/06 Q1011 WHT
  • 080055Z AUTO 21015KT 9999 OVC024/// 09/06 Q1012 WHT
  • 080047Z AUTO 22014KT 9999 OVC024/// 09/06 Q1012 WHT
  • 080025Z AUTO 21016KT 9999 OVC029/// 09/06 Q1012 BLU

TAF TAF EBCV
Valid from the 07 at 19:00 until the 08 at 07:00 UTC


071541Z 0719/0807 24010KT 9999 SCT025 BKN040
BECMG 0720/0722 22015KT SCT015 BKN035
PROB30
TEMPO 0722/0802 6000 -RA BKN015
TEMPO 0804/0807 22020G35KT 3500 RA SCT008 BKN012 OVC025 BY EBWM



MET'MAP, your aeronautical weather chart ! - Copyright ORBIFLY December 2007 - Disclaimer

ORBIFLY MET'MAP TEAM :

Programming & Development : Alexandra Zaïnal
Concept & original design : Baudouin d'Aumeries
Assistance for programming : Marc-Olivier Méhu
Technical & hardware support : Manuel Goepfert

Contact : metmap@orbifly.com




SOURCES & CREDITS :

   NOAA